ADDS METAR Data INFO
IDs: Format: Raw Decoded Include TAF

Data at: 1949 UTC 15 Dec 2017

KJWY 151935Z AUTO 31004KT 10SM CLR 12/M03 A3028 RMK AO2 T01201035
KJWY 151915Z AUTO 34008KT 10SM CLR 12/M02 A3028 RMK AO2 T01191025
KJWY 151855Z AUTO 36006G14KT 10SM CLR 11/M02 A3029 RMK AO2 T01091022
KJWY 151835Z AUTO 35010G14KT 10SM CLR 11/M02 A3030 RMK AO2 T01121023
KJWY 151815Z AUTO 34010G18KT 10SM CLR 11/M02 A3031 RMK AO2 T01121020
KJWY 151755Z AUTO 31010KT 10SM CLR 11/M01 A3032 RMK AO2 T01111010 10111 20015
KJWY 151735Z AUTO 33008KT 10SM CLR 11/M01 A3034 RMK AO2 T01061006
KJWY 151715Z AUTO 33009KT 10SM CLR 10/00 A3034 RMK AO2 T00991005
KJWY 151655Z AUTO 35010G15KT 10SM CLR 10/00 A3033 RMK AO2 T00971002
KJWY 151635Z AUTO 35010KT 10SM CLR 09/00 A3034 RMK AO2 T00881002
KJWY 151615Z AUTO 33011KT 10SM CLR 08/00 A3035 RMK AO2 T00800000
KJWY 151555Z AUTO 33009KT 10SM CLR 07/00 A3035 RMK AO2 T00720000
KJWY 151535Z AUTO 33010KT 10SM CLR 07/00 A3033 RMK AO2 T00690002
KJWY 151515Z AUTO 33008KT 10SM CLR 06/00 A3033 RMK AO2 T00560003
KJWY 151455Z AUTO 32006KT 10SM CLR 04/00 A3032 RMK AO2 T00400000
KJWY 151435Z AUTO 31007KT 10SM CLR 03/00 A3033 RMK AO2 T00291004
KJWY 151415Z AUTO 30005KT 10SM CLR 02/M01 A3032 RMK AO2 T00211008
KJWY 151355Z AUTO 31005KT 10SM CLR 02/M01 A3030 RMK AO2 T00151012
KJWY 151335Z AUTO 31006KT 10SM CLR 02/M01 A3030 RMK AO2 T00151014
KJWY 151315Z AUTO 30007KT 10SM CLR 02/M01 A3030 RMK AO2 T00191014
KJWY 151255Z AUTO 29006KT 10SM CLR 02/M01 A3029 RMK AO2 T00161015
KJWY 151235Z AUTO 29005KT 10SM CLR 02/M02 A3028 RMK AO2 T00181016
KJWY 151215Z AUTO 29005KT 10SM CLR 02/M02 A3028 RMK AO2 T00191016
KJWY 151155Z AUTO 29005KT 10SM CLR 02/M01 A3028 RMK AO2 T00161013 10054 20015
KJWY 151135Z AUTO 28004KT 10SM CLR 02/M01 A3027 RMK AO2 T00171012
KJWY 151115Z AUTO 28004KT 10SM CLR 02/M01 A3026 RMK AO2 T00181015
KJWY 151055Z AUTO 28004KT 10SM CLR 02/M01 A3026 RMK AO2 T00201013
KJWY 151035Z AUTO 28004KT 10SM CLR 02/M01 A3025 RMK AO2 T00231012
KJWY 151015Z AUTO 28004KT 10SM CLR 02/M01 A3025 RMK AO2 T00181010
KJWY 150955Z AUTO 00000KT 10SM CLR 03/M01 A3025 RMK AO2 T00301010
KJWY 150935Z AUTO 00000KT 10SM CLR 03/M01 A3024 RMK AO2 T00321011
KJWY 150915Z AUTO 31003KT 10SM CLR 03/M01 A3024 RMK AO2 T00321011
KJWY 150855Z AUTO 32005KT 10SM CLR 04/M01 A3024 RMK AO2 T00361010
KJWY 150835Z AUTO 32005KT 10SM CLR 04/M01 A3023 RMK AO2 T00381010
KJWY 150815Z AUTO 33005KT 10SM CLR 04/M01 A3023 RMK AO2 T00401009
KJWY 150755Z AUTO 33005KT 10SM CLR 05/M01 A3023 RMK AO2 T00451010
KJWY 150735Z AUTO 34006KT 10SM CLR 04/M01 A3023 RMK AO2 T00401009
KJWY 150715Z AUTO 34005KT 10SM CLR 05/M01 A3023 RMK AO2 T00481008
KJWY 150655Z AUTO 35006KT 10SM CLR 04/M01 A3022 RMK AO2 T00441009
KJWY 150635Z AUTO 34006KT 10SM CLR 05/M01 A3023 RMK AO2 T00461010
KJWY 150615Z AUTO 34005KT 10SM CLR 05/M01 A3023 RMK AO2 T00471012
KJWY 150555Z AUTO 35008KT 10SM CLR 05/M01 A3023 RMK AO2 T00511010 10110 20043 401700043
KJWY 150535Z AUTO 35006KT 10SM CLR 05/M02 A3023 RMK AO2 T00451016
KJWY 150515Z AUTO 35007KT 10SM CLR 05/M01 A3023 RMK AO2 T00531015
KJWY 150455Z AUTO 35007KT 10SM CLR 06/M01 A3023 RMK AO2 T00611014
KJWY 150435Z AUTO 34005KT 10SM CLR 06/M02 A3023 RMK AO2 T00551017
KJWY 150415Z AUTO 35008KT 10SM CLR 07/M01 A3022 RMK AO2 T00661015
KJWY 150355Z AUTO 34006KT 10SM CLR 05/M02 A3021 RMK AO2 T00501017
KJWY 150335Z AUTO 35008KT 10SM CLR 07/M02 A3021 RMK AO2 T00681016
KJWY 150315Z AUTO 00000KT 10SM CLR 07/M02 A3020 RMK AO2 T00651019
KJWY 150255Z AUTO 36007KT 10SM CLR 08/M02 A3018 RMK AO2 T00831016
KJWY 150235Z AUTO 36008KT 10SM CLR 09/M02 A3017 RMK AO2 T00871016
KJWY 150215Z AUTO 35009KT 10SM CLR 09/M01 A3017 RMK AO2 T00871015
KJWY 150155Z AUTO 35009KT 10SM CLR 09/M01 A3016 RMK AO2 T00871013
KJWY 150135Z AUTO 35007KT 10SM CLR 09/M01 A3016 RMK AO2 T00851012
KJWY 150115Z AUTO 35007KT 10SM CLR 09/M01 A3015 RMK AO2 T00871014
KJWY 150055Z AUTO 36008KT 10SM CLR 10/M01 A3014 RMK AO2 T01001014
KJWY 150035Z AUTO 36008KT 10SM CLR 10/M02 A3012 RMK AO2 T01021016
KJWY 150015Z AUTO 36008KT 10SM CLR 11/M02 A3012 RMK AO2 T01061017
KJWY 142355Z AUTO 36006KT 10SM CLR 11/M02 A3010 RMK AO2 T01071020 10170 20107
KJWY 142335Z AUTO 35010KT 10SM CLR 11/M02 A3008 RMK AO2 T01141018
KJWY 142315Z AUTO 36008KT 10SM CLR 13/M02 A3008 RMK AO2 T01251020
KJWY 142255Z AUTO 35013KT 10SM CLR 13/M02 A3006 RMK AO2 T01291021
KJWY 142235Z AUTO 35013KT 10SM CLR 14/M01 A3006 RMK AO2 T01351015
KJWY 142215Z AUTO 34012G16KT 10SM CLR 14/M01 A3005 RMK AO2 T01371013
KJWY 142155Z AUTO 35010G16KT 10SM CLR 15/M01 A3005 RMK AO2 T01451009
KJWY 142135Z AUTO 34015G18KT 10SM CLR 15/M01 A3004 RMK AO2 T01481010
KJWY 142115Z AUTO 36012KT 10SM CLR 16/M01 A3004 RMK AO2 T01551012
KJWY 142055Z AUTO 36014G17KT 10SM CLR 16/M01 A3004 RMK AO2 T01601009
KJWY 142035Z AUTO 36010G19KT 10SM CLR 16/M01 A3003 RMK AO2 T01561008
KJWY 142015Z AUTO 01011KT 10SM CLR 16/00 A3002 RMK AO2 T01631004
KJWY 141955Z AUTO 36012G20KT 10SM CLR 17/00 A3003 RMK AO2 T01661003
KJWY 141935Z AUTO 36013G17KT 10SM CLR 17/00 A3003 RMK AO2 T01671001
KJWY 141915Z AUTO 02009G14KT 10SM CLR 17/00 A3004 RMK AO2 T01660000
KJWY 141855Z AUTO 36009G17KT 10SM CLR 16/00 A3005 RMK AO2 T01621001
KJWY 141835Z AUTO 02010G18KT 10SM CLR 16/00 A3005 RMK AO2 T01621003
KJWY 141815Z AUTO 01010KT 10SM CLR 16/00 A3005 RMK AO2 T01601002
KJWY 141755Z AUTO 02012G19KT 10SM CLR 16/00 A3005 RMK AO2 T01631003 10165 20075
KJWY 141735Z AUTO 02011KT 10SM CLR 16/00 A3006 RMK AO2 T01591004
KJWY 141715Z AUTO 03012G17KT 10SM CLR 15/00 A3006 RMK AO2 T01531003
KJWY 141655Z AUTO 01013G17KT 10SM CLR 15/00 A3007 RMK AO2 T01451005
KJWY 141635Z AUTO 36012G17KT 10SM CLR 14/00 A3006 RMK AO2 T01361005
KJWY 141615Z AUTO 01010G16KT 10SM CLR 13/M01 A3006 RMK AO2 T01281008
KJWY 141555Z AUTO 36013G16KT 10SM CLR 12/M01 A3005 RMK AO2 T01221010
KJWY 141535Z AUTO 36013G18KT 10SM CLR 11/M01 A3004 RMK AO2 T01121011
KJWY 141515Z AUTO 36014KT 10SM CLR 10/M01 A3003 RMK AO2 T01031011
KJWY 141455Z AUTO 35014G17KT 10SM CLR 10/M01 A3001 RMK AO2 T00951012
KJWY 141435Z AUTO 36011KT 10SM CLR 08/M01 A3000 RMK AO2 T00841013
KJWY 141415Z AUTO 36010KT 10SM CLR 08/M01 A2999 RMK AO2 T00831015
KJWY 141355Z AUTO 36008KT 10SM CLR 08/M01 A2998 RMK AO2 T00751015
KJWY 141335Z AUTO 36008KT 10SM CLR 08/M01 A2998 RMK AO2 T00801015
KJWY 141315Z AUTO 36008KT 10SM CLR 08/M01 A2996 RMK AO2 T00811013
KJWY 141255Z AUTO 36008KT 10SM SCT120 09/M01 A2996 RMK AO2 T00851010
KJWY 141235Z AUTO 36008KT 10SM CLR 10/M01 A2995 RMK AO2 T00951010
KJWY 141215Z AUTO 36008KT 10SM CLR 10/M01 A2995 RMK AO2 T01011009
KJWY 141155Z AUTO 36009KT 10SM CLR 10/00 A2994 RMK AO2 T01011004 10101 20053
KJWY 141135Z AUTO 35008KT 10SM CLR 09/00 A2993 RMK AO2 T00910003
KJWY 141115Z AUTO 35007KT 10SM CLR 09/01 A2992 RMK AO2 T00850008
KJWY 141055Z AUTO 33006KT 10SM CLR 07/00 A2991 RMK AO2 T00690004
KJWY 141035Z AUTO 32003KT 10SM CLR 06/00 A2991 RMK AO2 T00570000
KJWY 141015Z AUTO 30003KT 10SM CLR 06/00 A2991 RMK AO2 T00600000
KJWY 140955Z AUTO 31003KT 10SM CLR 06/00 A2990 RMK AO2 T00580000
KJWY 140935Z AUTO 32006KT 10SM CLR 06/00 A2991 RMK AO2 T00570000
KJWY 140915Z AUTO 32006KT 10SM CLR 06/01 A2991 RMK AO2 T00570005
KJWY 140855Z AUTO 29005KT 10SM CLR 06/01 A2990 RMK AO2 T00630010
KJWY 140835Z AUTO 29005KT 10SM CLR 06/01 A2990 RMK AO2 T00640011
KJWY 140815Z AUTO 31006KT 10SM CLR 06/01 A2990 RMK AO2 T00640012
KJWY 140755Z AUTO 29006KT 10SM CLR 06/01 A2991 RMK AO2 T00630011